Willingboro, NJ (08046)

11:39 PM EDT on July 02, 2015 (GMT -0400)
Spring Meadows | | Change Station
CLOSE
Current Station
Personal Weather Station
Location: Westampton, NJ
Elevation: 72 ft
Nearby Weather Stations

Elev 72 ft 40.02 °N, 74.85 °W | Updated 3 seconds ago

Partly Cloudy
Partly Cloudy
64.9 °F
Feels Like 64.9 °F
N
0.0
Wind Variable Wind from ESE
Gusts 0.0 mph

Today
High -- | Low -- °F
--% Chance of Precip.
Yesterday
High -- | Low -- °F
Precip. -- in
5:34 AM 8:32 PM
Full, 99% visible
Pressure 29.89 in
Visibility 3.0 miles
Clouds Clear
Dew Point 64 °F
Humidity 95%
Rainfall 0.01 in
Snow Depth Not available.
UV 0 out of 12
Pollen 3.80 out of 12
Air Quality Not available.
Flu Activity Not available.
SPECI KVAY 030333Z AUTO 00000KT 3SM BR CLR 18/18 A2989 RMK AO2 T01830178

More Conditions Fewer Conditions

Pressure 29.89 in
Visibility 3.0 miles
Clouds Clear
Dew Point 64 °F
Humidity 95%
Rainfall 0.01 in
Snow Depth Not available.
UV 0 out of 12
Pollen 3.80 out of 12
Air Quality Not available.
Flu Activity Not available.
SPECI KVAY 030333Z AUTO 00000KT 3SM BR CLR 18/18 A2989 RMK AO2 T01830178

More Conditions Fewer Conditions

10-Day Weather Forecast

×

Almanac

Astronomy

Jul. 02, 2015 Rise Set
Actual Time
Civil Twilight
Nautical Twilight
Astronomical Twilight
Moon
Length of Visible Light
Length of Day
Tomorrow will be .
, % of the Moon is Illuminated

Today's Extremes

State Highs State Lows

Community

WunderPhotos

Upload Photos

1,834,615 photos uploaded!

WunderBlogs® & News

Nearby

Air Quality

  Air Quality AQ Index Pollutant
Not available.

Snow Depth

Station Depth Elevation

Earthquake Activity

City Distance Mag. Time & Date
Minimum magnitude displayed is 2.5.

Coastal Water Temperatures

Place Temperature

Stations

Nearby Weather Stations

Station Location Temp. Windchill Dew Point Humidity Wind Precip. Elev Updated Type